CheckWX is a tool to help pilots better visualize weather data.  It is not intended as a substitute for an official pre-flight weather briefing.

21:07:12 UTC

KRPJ METAR
Rochelle Municipal-Koritz Field Airport
Rochelle, Illinois, USA
Current

12 mins ago

KRPJ 232055Z AUTO 11009KT 3SM BR OVC005 02/01 A2974 RMK AO2 T00160013
Observed
Feb-23 @ 20:55 UTC
Wind
  • 110° at 9 KTS
Visibility
3 SM
Flight Rules
IFR
Conditions
Mist
Cloud Levels
  • Overcast at 500' AGL
Temperature
C / 36°F
Dewpoint
C / 34°F
Humidity
93%
Altimeter
29.74" Hg
Pressure
1007.12 hPa
Previous

32 mins ago

KRPJ 232035Z AUTO 11008KT 3SM BR OVC005 02/01 A2974 RMK AO2 T00150011
Observed
Feb-23 @ 20:35 UTC
Wind
  • 110° at 8 KTS
Visibility
3 SM
Flight Rules
IFR
Conditions
Mist
Cloud Levels
  • Overcast at 500' AGL
Temperature
C / 36°F
Dewpoint
C / 34°F
Humidity
93%
Altimeter
29.74" Hg
Pressure
1007.12 hPa
Previous

52 mins ago

KRPJ 232015Z AUTO 12008KT 2SM BR OVC005 01/01 A2976 RMK AO2 T00100008
Observed
Feb-23 @ 20:15 UTC
Wind
  • 120° at 8 KTS
Visibility
2 SM
Flight Rules
IFR
Conditions
Mist
Cloud Levels
  • Overcast at 500' AGL
Temperature
C / 34°F
Dewpoint
C / 34°F
Humidity
100%
Altimeter
29.76" Hg
Pressure
1007.82 hPa